Terminal Aerodrome Forecast
Issued by NWS Indianapolis, IN

Home | Current Version | Previous Version | Text Only | Print | Product List | Glossary On
Versions: 1 2 3 4 5 6 7 8 9 10 11 12 13 14 15 16 17 18 19 20 21 22 23 24 25 26 27
000
FTUS43 KIND 011225 AAA
TAFIND
TAF AMD
KIND 011225Z 0112/0218 22005KT P6SM FEW035 BKN050
     FM011600 23008KT P6SM SCT025 SCT250
     FM020100 22005KT P6SM FEW250
     FM020700 22004KT P6SM SCT060 SCT250=

USA.gov is the U.S. government's official web portal to all federal, state and local government web resources and services.